createdAt,value
2024-05-09T00:00:06.881Z,100.00
2024-05-09T00:01:11.923Z,100.00
2024-05-09T00:02:13.547Z,100.00
2024-05-09T00:03:15.245Z,100.00
2024-05-09T00:04:16.886Z,100.00
2024-05-09T00:05:18.709Z,100.00
2024-05-09T00:06:20.289Z,100.00
2024-05-09T00:07:21.820Z,100.00
2024-05-09T00:08:24.138Z,100.00
2024-05-09T00:09:25.716Z,100.00
2024-05-09T00:10:35.407Z,100.00
2024-05-09T00:11:39.586Z,100.00
2024-05-09T00:12:41.182Z,100.00
2024-05-09T00:13:42.923Z,100.00
2024-05-09T00:14:44.529Z,100.00
2024-05-09T00:15:48.598Z,100.00
2024-05-09T00:16:50.183Z,100.00
2024-05-09T00:17:51.958Z,100.00
2024-05-09T00:18:54.417Z,100.00
2024-05-09T00:19:56.016Z,100.00
2024-05-09T00:20:57.813Z,100.00
2024-05-09T00:21:59.492Z,100.00
2024-05-09T00:23:01.315Z,100.00
2024-05-09T00:24:02.992Z,100.00
2024-05-09T00:25:04.708Z,100.00
2024-05-09T00:26:06.262Z,100.00
2024-05-09T00:27:08.960Z,100.00
2024-05-09T00:28:12.330Z,100.00
2024-05-09T00:29:14.191Z,100.00
2024-05-09T00:30:24.182Z,100.00
2024-05-09T00:31:33.018Z,100.00
2024-05-09T00:32:34.739Z,100.00
2024-05-09T00:33:36.589Z,100.00
2024-05-09T00:34:38.222Z,100.00
2024-05-09T00:35:41.468Z,100.00
2024-05-09T00:36:43.114Z,100.00
2024-05-09T00:37:44.704Z,100.00
2024-05-09T00:38:47.609Z,100.00
2024-05-09T00:39:49.175Z,100.00
2024-05-09T00:40:50.855Z,100.00
2024-05-09T00:41:52.465Z,100.00
2024-05-09T00:42:54.045Z,100.00
2024-05-09T00:43:55.670Z,100.00
2024-05-09T00:44:57.233Z,100.00
2024-05-09T00:45:59.317Z,100.00
2024-05-09T00:47:00.923Z,100.00
2024-05-09T00:48:04.998Z,100.00
2024-05-09T00:49:07.207Z,100.00
2024-05-09T00:50:15.496Z,100.00
2024-05-09T00:51:20.665Z,100.00
2024-05-09T00:52:22.244Z,100.00
2024-05-09T00:53:24.210Z,100.00
2024-05-09T00:54:26.352Z,100.00
2024-05-09T00:55:28.220Z,100.00
2024-05-09T00:56:29.801Z,100.00
2024-05-09T00:57:31.390Z,100.00
2024-05-09T00:58:32.971Z,100.00
2024-05-09T00:59:34.848Z,100.00
2024-05-09T01:00:39.968Z,100.00
2024-05-09T01:01:43.372Z,100.00
2024-05-09T01:02:45.126Z,100.00
2024-05-09T01:03:49.560Z,100.00
2024-05-09T01:04:53.522Z,100.00
2024-05-09T01:05:55.278Z,100.00
2024-05-09T01:06:56.846Z,100.00
2024-05-09T01:07:58.507Z,100.00
2024-05-09T01:09:00.099Z,100.00
2024-05-09T01:10:01.667Z,100.00
2024-05-09T01:11:03.348Z,100.00
2024-05-09T01:12:05.273Z,100.00
2024-05-09T01:13:07.513Z,100.00
2024-05-09T01:14:09.292Z,100.00
2024-05-09T01:15:10.889Z,100.00
2024-05-09T01:16:13.662Z,100.00
2024-05-09T01:17:15.276Z,100.00
2024-05-09T01:18:17.256Z,100.00
2024-05-09T01:19:29.352Z,100.00
2024-05-09T01:20:40.266Z,100.00
2024-05-09T01:21:44.797Z,100.00
2024-05-09T01:22:47.250Z,100.00
2024-05-09T01:23:48.909Z,100.00
2024-05-09T01:24:52.025Z,100.00
2024-05-09T01:25:53.720Z,100.00
2024-05-09T01:26:55.308Z,100.00
2024-05-09T01:27:56.844Z,100.00
2024-05-09T01:28:58.458Z,100.00
2024-05-09T01:30:00.123Z,100.00
2024-05-09T01:31:01.731Z,100.00
2024-05-09T01:32:04.879Z,100.00
2024-05-09T01:33:08.889Z,100.00
2024-05-09T01:34:12.240Z,100.00
2024-05-09T01:35:13.920Z,100.00
2024-05-09T01:36:15.490Z,100.00
2024-05-09T01:37:17.044Z,100.00
2024-05-09T01:38:19.966Z,100.00
2024-05-09T01:39:21.611Z,100.00
2024-05-09T01:40:33.280Z,100.00
2024-05-09T01:41:39.302Z,100.00
2024-05-09T01:42:41.149Z,100.00
2024-05-09T01:43:42.818Z,100.00
2024-05-09T01:44:44.426Z,100.00
2024-05-09T01:45:46.028Z,100.00
2024-05-09T01:46:47.612Z,100.00
2024-05-09T01:47:49.393Z,100.00
2024-05-09T01:48:51.279Z,100.00
2024-05-09T01:49:53.937Z,100.00
2024-05-09T01:50:55.582Z,100.00
2024-05-09T01:51:57.121Z,100.00
2024-05-09T01:52:58.715Z,100.00
2024-05-09T01:54:00.370Z,100.00
2024-05-09T01:55:05.674Z,100.00
2024-05-09T01:56:08.199Z,100.00
2024-05-09T01:57:09.928Z,100.00
2024-05-09T01:58:11.469Z,100.00
2024-05-09T01:59:13.096Z,100.00
2024-05-09T02:00:22.155Z,100.00
2024-05-09T02:01:31.200Z,100.00
2024-05-09T02:02:52.760Z,100.00
2024-05-09T02:03:54.598Z,100.00
2024-05-09T02:04:56.396Z,100.00
2024-05-09T02:05:58.091Z,100.00
2024-05-09T02:06:59.713Z,100.00
2024-05-09T02:08:01.396Z,100.00
2024-05-09T02:09:03.024Z,100.00
2024-05-09T02:10:13.528Z,100.00
2024-05-09T02:11:18.283Z,100.00
2024-05-09T02:12:20.115Z,100.00
2024-05-09T02:13:21.721Z,100.00
2024-05-09T02:14:23.383Z,100.00
2024-05-09T02:15:25.010Z,100.00
2024-05-09T02:16:26.556Z,100.00
2024-05-09T02:17:28.197Z,100.00
2024-05-09T02:18:29.912Z,100.00
2024-05-09T02:19:31.650Z,100.00
2024-05-09T02:20:36.493Z,100.00
2024-05-09T02:21:38.911Z,100.00
2024-05-09T02:22:40.465Z,100.00
2024-05-09T02:23:42.037Z,100.00
2024-05-09T02:24:43.595Z,100.00
2024-05-09T02:25:45.205Z,100.00
2024-05-09T02:26:46.843Z,100.00
2024-05-09T02:27:48.378Z,100.00
2024-05-09T02:28:50.015Z,100.00
2024-05-09T02:29:51.580Z,100.00
2024-05-09T02:30:53.147Z,100.00
2024-05-09T02:31:54.772Z,100.00
2024-05-09T02:32:56.414Z,100.00
2024-05-09T02:33:58.199Z,100.00
2024-05-09T02:34:59.898Z,100.00
2024-05-09T02:36:01.526Z,100.00
2024-05-09T02:37:03.094Z,100.00
2024-05-09T02:38:04.973Z,100.00
2024-05-09T02:39:06.666Z,100.00
2024-05-09T02:40:14.245Z,100.00
2024-05-09T02:41:16.407Z,100.00
2024-05-09T02:42:18.005Z,100.00
2024-05-09T02:43:19.559Z,100.00
2024-05-09T02:44:21.608Z,100.00
2024-05-09T02:45:24.905Z,100.00
2024-05-09T02:46:26.472Z,100.00
2024-05-09T02:47:28.146Z,100.00
2024-05-09T02:48:29.867Z,100.00
2024-05-09T02:49:31.527Z,100.00
2024-05-09T02:50:38.170Z,100.00
2024-05-09T02:51:41.371Z,100.00
2024-05-09T02:52:42.940Z,100.00
2024-05-09T02:53:44.601Z,100.00
2024-05-09T02:54:46.200Z,100.00
2024-05-09T02:55:47.833Z,100.00
2024-05-09T02:56:49.446Z,100.00
2024-05-09T02:57:50.986Z,100.00
2024-05-09T02:58:52.560Z,100.00
2024-05-09T02:59:54.189Z,100.00
2024-05-09T03:00:55.827Z,100.00
2024-05-09T03:01:57.505Z,100.00
2024-05-09T03:02:59.356Z,100.00
2024-05-09T03:04:01.175Z,100.00
2024-05-09T03:05:02.891Z,100.00
2024-05-09T03:06:04.743Z,100.00
2024-05-09T03:07:06.440Z,100.00
2024-05-09T03:08:08.189Z,100.00
2024-05-09T03:09:09.971Z,100.00
2024-05-09T03:10:18.379Z,100.00
2024-05-09T03:11:24.826Z,100.00
2024-05-09T03:12:27.898Z,100.00
2024-05-09T03:13:29.455Z,100.00
2024-05-09T03:14:31.410Z,100.00
2024-05-09T03:15:33.235Z,100.00
2024-05-09T03:16:40.968Z,100.00
2024-05-09T03:17:42.781Z,100.00
2024-05-09T03:18:44.994Z,100.00
2024-05-09T03:19:46.674Z,100.00
2024-05-09T03:20:48.313Z,100.00
2024-05-09T03:21:49.844Z,100.00
2024-05-09T03:22:54.056Z,100.00
2024-05-09T03:23:57.178Z,100.00
2024-05-09T03:24:58.727Z,100.00
2024-05-09T03:26:00.340Z,100.00
2024-05-09T03:27:01.909Z,100.00
2024-05-09T03:28:03.749Z,100.00
2024-05-09T03:29:05.365Z,100.00
2024-05-09T03:30:07.690Z,100.00
2024-05-09T03:31:11.577Z,100.00
2024-05-09T03:32:13.236Z,100.00
2024-05-09T03:33:18.350Z,100.00
2024-05-09T03:34:21.342Z,100.00
2024-05-09T03:35:23.010Z,100.00
2024-05-09T03:36:24.672Z,100.00
2024-05-09T03:37:26.199Z,100.00
2024-05-09T03:38:27.815Z,100.00
2024-05-09T03:39:29.392Z,100.00
2024-05-09T03:40:31.436Z,100.00
2024-05-09T03:41:33.292Z,100.00
2024-05-09T03:42:40.820Z,100.00
2024-05-09T03:43:43.840Z,100.00
2024-05-09T03:44:45.433Z,100.00
2024-05-09T03:45:48.275Z,100.00
2024-05-09T03:46:49.871Z,100.00
2024-05-09T03:47:51.733Z,100.00
2024-05-09T03:48:53.609Z,100.00
2024-05-09T03:49:55.237Z,100.00
2024-05-09T03:50:56.916Z,100.00
2024-05-09T03:51:58.561Z,100.00
2024-05-09T03:53:00.536Z,100.00
2024-05-09T03:54:02.328Z,100.00
2024-05-09T03:55:03.917Z,100.00
2024-05-09T03:56:07.586Z,100.00
2024-05-09T03:57:09.128Z,100.00
2024-05-09T03:58:12.966Z,100.00
2024-05-09T03:59:14.737Z,100.00
2024-05-09T04:00:22.499Z,100.00
2024-05-09T04:01:32.285Z,100.00
2024-05-09T04:02:34.066Z,100.00
2024-05-09T04:03:36.076Z,100.00
2024-05-09T04:04:40.604Z,100.00
2024-05-09T04:05:44.096Z,100.00
2024-05-09T04:06:46.146Z,100.00
2024-05-09T04:07:47.744Z,100.00
2024-05-09T04:08:49.429Z,100.00
2024-05-09T04:09:50.975Z,100.00
2024-05-09T04:10:52.583Z,100.00
2024-05-09T04:11:54.372Z,100.00
2024-05-09T04:12:56.038Z,100.00
2024-05-09T04:13:57.641Z,100.00
2024-05-09T04:14:59.359Z,100.00
2024-05-09T04:16:00.891Z,100.00
2024-05-09T04:17:02.492Z,100.00
2024-05-09T04:18:04.307Z,100.00
2024-05-09T04:19:06.085Z,100.00
2024-05-09T04:20:10.566Z,100.00
2024-05-09T04:21:12.556Z,100.00
2024-05-09T04:22:14.166Z,100.00
2024-05-09T04:23:15.804Z,100.00
2024-05-09T04:24:17.369Z,100.00
2024-05-09T04:25:18.974Z,100.00
2024-05-09T04:26:20.553Z,100.00
2024-05-09T04:27:22.090Z,100.00
2024-05-09T04:28:24.010Z,100.00
2024-05-09T04:29:25.672Z,100.00
2024-05-09T04:30:36.337Z,100.00
2024-05-09T04:31:41.063Z,100.00
2024-05-09T04:32:42.946Z,100.00
2024-05-09T04:33:44.732Z,100.00
2024-05-09T04:34:46.368Z,100.00
2024-05-09T04:35:49.535Z,100.00
2024-05-09T04:36:51.148Z,100.00
2024-05-09T04:37:52.755Z,100.00
2024-05-09T04:38:54.323Z,100.00
2024-05-09T04:39:57.626Z,100.00
2024-05-09T04:40:59.257Z,100.00
2024-05-09T04:42:00.830Z,100.00
2024-05-09T04:43:02.520Z,100.00
2024-05-09T04:44:04.163Z,100.00
2024-05-09T04:45:05.873Z,100.00
2024-05-09T04:46:07.462Z,100.00
2024-05-09T04:47:09.050Z,100.00
2024-05-09T04:48:11.124Z,100.00
2024-05-09T04:49:13.244Z,100.00
2024-05-09T04:50:21.228Z,100.00
2024-05-09T04:51:31.012Z,100.00
2024-05-09T04:52:32.539Z,100.00
2024-05-09T04:53:34.155Z,100.00
2024-05-09T04:54:36.662Z,100.00
2024-05-09T04:55:39.417Z,100.00
2024-05-09T04:56:41.410Z,100.00
2024-05-09T04:57:42.985Z,100.00
2024-05-09T04:58:44.610Z,100.00
2024-05-09T04:59:46.200Z,100.00
2024-05-09T05:00:47.830Z,100.00
2024-05-09T05:01:49.591Z,100.00
2024-05-09T05:02:51.350Z,100.00
2024-05-09T05:03:54.912Z,100.00
2024-05-09T05:04:57.573Z,100.00
2024-05-09T05:05:59.450Z,100.00
2024-05-09T05:07:02.894Z,100.00
2024-05-09T05:08:05.122Z,100.00
2024-05-09T05:09:06.802Z,100.00
2024-05-09T05:10:11.862Z,100.00
2024-05-09T05:11:16.304Z,100.00
2024-05-09T05:12:36.565Z,100.00
2024-05-09T05:13:40.849Z,100.00
2024-05-09T05:14:43.066Z,100.00
2024-05-09T05:15:45.131Z,100.00
2024-05-09T05:16:46.734Z,100.00
2024-05-09T05:17:48.526Z,100.00
2024-05-09T05:18:50.344Z,100.00
2024-05-09T05:19:52.308Z,100.00
2024-05-09T05:20:55.294Z,100.00
2024-05-09T05:21:56.933Z,100.00
2024-05-09T05:22:58.493Z,100.00
2024-05-09T05:24:00.091Z,100.00
2024-05-09T05:25:01.663Z,100.00
2024-05-09T05:26:03.263Z,100.00
2024-05-09T05:27:04.930Z,100.00
2024-05-09T05:28:06.749Z,100.00
2024-05-09T05:29:08.303Z,100.00
2024-05-09T05:30:17.535Z,100.00
2024-05-09T05:31:22.832Z,100.00
2024-05-09T05:32:24.670Z,100.00
2024-05-09T05:33:26.513Z,100.00
2024-05-09T05:34:28.204Z,100.00
2024-05-09T05:35:29.942Z,100.00
2024-05-09T05:36:31.590Z,100.00
2024-05-09T05:37:33.189Z,100.00
2024-05-09T05:38:34.743Z,100.00
2024-05-09T05:39:36.305Z,100.00
2024-05-09T05:40:39.153Z,100.00
2024-05-09T05:41:41.914Z,100.00
2024-05-09T05:42:43.531Z,100.00
2024-05-09T05:43:45.126Z,100.00
2024-05-09T05:44:46.732Z,100.00
2024-05-09T05:45:48.270Z,100.00
2024-05-09T05:46:50.887Z,100.00
2024-05-09T05:47:54.003Z,100.00
2024-05-09T05:48:55.818Z,100.00
2024-05-09T05:49:57.441Z,100.00
2024-05-09T05:51:01.162Z,100.00
2024-05-09T05:52:04.395Z,100.00
2024-05-09T05:53:07.692Z,100.00
2024-05-09T05:54:10.132Z,100.00
2024-05-09T05:55:11.694Z,100.00
2024-05-09T05:56:13.329Z,100.00
2024-05-09T05:57:15.861Z,100.00
2024-05-09T05:58:17.422Z,100.00
2024-05-09T05:59:19.079Z,100.00
2024-05-09T06:00:29.285Z,100.00
2024-05-09T06:01:36.873Z,100.00
2024-05-09T06:02:38.557Z,100.00
2024-05-09T06:03:40.294Z,100.00
2024-05-09T06:04:42.503Z,100.00
2024-05-09T06:05:45.912Z,100.00
2024-05-09T06:06:48.318Z,100.00
2024-05-09T06:07:49.899Z,100.00
2024-05-09T06:08:52.470Z,100.00
2024-05-09T06:09:54.074Z,100.00
2024-05-09T06:10:55.761Z,100.00
2024-05-09T06:11:57.485Z,100.00
2024-05-09T06:12:59.108Z,100.00
2024-05-09T06:14:01.625Z,100.00
2024-05-09T06:15:03.378Z,100.00
2024-05-09T06:16:05.126Z,100.00
2024-05-09T06:17:06.848Z,100.00
2024-05-09T06:18:09.667Z,100.00
2024-05-09T06:19:12.446Z,100.00
2024-05-09T06:20:20.550Z,100.00
2024-05-09T06:21:28.468Z,100.00
2024-05-09T06:22:30.066Z,100.00
2024-05-09T06:23:31.799Z,100.00
2024-05-09T06:24:33.405Z,100.00
2024-05-09T06:25:35.762Z,100.00
2024-05-09T06:26:37.585Z,100.00
2024-05-09T06:27:39.827Z,100.00
2024-05-09T06:28:41.359Z,100.00
2024-05-09T06:29:42.961Z,100.00
2024-05-09T06:30:44.530Z,100.00
2024-05-09T06:31:46.685Z,100.00
2024-05-09T06:32:48.501Z,100.00
2024-05-09T06:33:50.382Z,100.00
2024-05-09T06:34:52.121Z,100.00
2024-05-09T06:35:59.218Z,100.00
2024-05-09T06:37:00.775Z,100.00
2024-05-09T06:38:02.594Z,100.00
2024-05-09T06:39:04.287Z,100.00
2024-05-09T06:40:07.477Z,100.00
2024-05-09T06:41:09.229Z,100.00
2024-05-09T06:42:10.803Z,100.00
2024-05-09T06:43:17.755Z,100.00
2024-05-09T06:44:20.869Z,100.00
2024-05-09T06:45:22.409Z,100.00
2024-05-09T06:46:23.988Z,100.00
2024-05-09T06:47:25.788Z,100.00
2024-05-09T06:48:27.682Z,100.00
2024-05-09T06:49:31.712Z,100.00
2024-05-09T06:50:37.556Z,100.00
2024-05-09T06:51:41.214Z,100.00
2024-05-09T06:52:48.641Z,100.00
2024-05-09T06:53:50.205Z,100.00
2024-05-09T06:54:51.746Z,100.00
2024-05-09T06:55:53.367Z,100.00
2024-05-09T06:56:55.005Z,100.00
2024-05-09T06:57:56.565Z,100.00
2024-05-09T06:58:58.261Z,100.00
2024-05-09T07:00:00.903Z,100.00
2024-05-09T07:01:03.639Z,100.00
2024-05-09T07:02:05.320Z,100.00
2024-05-09T07:03:07.740Z,100.00
2024-05-09T07:04:09.682Z,100.00
2024-05-09T07:05:11.527Z,100.00
2024-05-09T07:06:13.498Z,100.00
2024-05-09T07:07:15.301Z,100.00
2024-05-09T07:08:17.164Z,100.00
2024-05-09T07:09:18.812Z,100.00
2024-05-09T07:10:28.499Z,100.00
2024-05-09T07:11:34.517Z,100.00
2024-05-09T07:12:36.200Z,100.00
2024-05-09T07:13:37.791Z,100.00
2024-05-09T07:14:39.387Z,100.00
2024-05-09T07:15:41.762Z,100.00
2024-05-09T07:16:43.381Z,100.00
2024-05-09T07:17:45.007Z,100.00
2024-05-09T07:18:49.824Z,100.00
2024-05-09T07:19:51.646Z,100.00
2024-05-09T07:20:53.283Z,100.00
2024-05-09T07:21:54.963Z,100.00
2024-05-09T07:22:56.538Z,100.00
2024-05-09T07:23:58.356Z,100.00
2024-05-09T07:24:59.897Z,100.00
2024-05-09T07:26:01.483Z,100.00
2024-05-09T07:27:03.398Z,100.00
2024-05-09T07:28:05.144Z,100.00
2024-05-09T07:29:06.717Z,100.00
2024-05-09T07:30:09.453Z,100.00
2024-05-09T07:31:13.127Z,100.00
2024-05-09T07:32:14.798Z,100.00
2024-05-09T07:33:17.550Z,100.00
2024-05-09T07:34:19.611Z,100.00
2024-05-09T07:35:22.311Z,100.00
2024-05-09T07:36:23.941Z,100.00
2024-05-09T07:37:25.470Z,100.00
2024-05-09T07:38:27.070Z,100.00
2024-05-09T07:39:28.695Z,100.00
2024-05-09T07:40:35.860Z,100.00
2024-05-09T07:41:38.562Z,100.00
2024-05-09T07:42:40.124Z,100.00
2024-05-09T07:43:41.705Z,100.00
2024-05-09T07:44:43.350Z,100.00
2024-05-09T07:45:51.955Z,100.00
2024-05-09T07:48:14.014Z,100.00
2024-05-09T07:53:14.072Z,100.00
2024-05-09T07:54:01.681Z,100.00
2024-05-09T07:55:04.540Z,100.00
2024-05-09T07:56:07.939Z,100.00
2024-05-09T07:57:11.285Z,100.00
2024-05-09T07:58:16.648Z,100.00
2024-05-09T07:59:22.018Z,100.00
2024-05-09T08:00:29.787Z,100.00
2024-05-09T08:01:33.612Z,100.00
2024-05-09T08:02:35.286Z,100.00
2024-05-09T08:03:37.521Z,100.00
2024-05-09T08:04:39.407Z,100.00
2024-05-09T08:05:42.273Z,100.00
2024-05-09T08:06:43.840Z,100.00
2024-05-09T08:07:47.122Z,100.00
2024-05-09T08:08:48.720Z,100.00
2024-05-09T08:09:50.261Z,100.00
2024-05-09T08:10:52.030Z,100.00
2024-05-09T08:11:53.647Z,100.00
2024-05-09T08:12:55.320Z,100.00
2024-05-09T08:13:56.878Z,100.00
2024-05-09T08:14:58.483Z,100.00
2024-05-09T08:16:00.084Z,100.00
2024-05-09T08:17:02.437Z,100.00
2024-05-09T08:18:07.466Z,100.00
2024-05-09T08:19:09.221Z,100.00
2024-05-09T08:21:12.882Z,100.00
2024-05-09T08:22:14.742Z,100.00
2024-05-09T08:23:16.285Z,100.00
2024-05-09T08:24:17.837Z,100.00
2024-05-09T08:25:19.506Z,100.00
2024-05-09T08:26:21.140Z,100.00
2024-05-09T08:27:22.730Z,100.00
2024-05-09T08:28:24.388Z,100.00
2024-05-09T08:29:25.995Z,100.00
2024-05-09T08:30:33.672Z,100.00
2024-05-09T08:31:41.517Z,100.00
2024-05-09T08:32:45.250Z,100.00
2024-05-09T08:33:48.090Z,100.00
2024-05-09T08:34:50.092Z,100.00
2024-05-09T08:35:51.761Z,100.00
2024-05-09T08:36:53.400Z,100.00
2024-05-09T08:37:55.789Z,100.00
2024-05-09T08:38:57.484Z,100.00
2024-05-09T08:39:59.045Z,100.00
2024-05-09T08:41:03.129Z,100.00
2024-05-09T08:42:06.214Z,100.00
2024-05-09T08:43:10.054Z,100.00
2024-05-09T08:44:13.624Z,100.00
2024-05-09T08:45:15.282Z,100.00
2024-05-09T08:46:19.038Z,100.00
2024-05-09T08:47:20.989Z,100.00
2024-05-09T08:48:23.518Z,100.00
2024-05-09T08:49:26.353Z,100.00
2024-05-09T08:50:35.882Z,100.00
2024-05-09T08:51:40.506Z,100.00
2024-05-09T08:52:42.178Z,100.00
2024-05-09T08:53:43.769Z,100.00
2024-05-09T08:54:45.841Z,100.00
2024-05-09T08:55:47.430Z,100.00
2024-05-09T08:56:49.740Z,100.00
2024-05-09T08:57:51.966Z,100.00
2024-05-09T08:58:56.483Z,100.00
2024-05-09T09:00:03.508Z,100.00
2024-05-09T09:01:05.464Z,100.00
2024-05-09T09:02:08.974Z,100.00
2024-05-09T09:03:12.823Z,100.00
2024-05-09T09:04:16.488Z,100.00
2024-05-09T09:05:21.539Z,100.00
2024-05-09T09:06:24.437Z,100.00
2024-05-09T09:07:26.448Z,100.00
2024-05-09T09:08:28.172Z,100.00
2024-05-09T09:09:30.482Z,100.00
2024-05-09T09:10:33.201Z,100.00
2024-05-09T09:11:35.183Z,100.00
2024-05-09T09:12:36.745Z,100.00
2024-05-09T09:13:38.333Z,100.00
2024-05-09T09:14:39.887Z,100.00
2024-05-09T09:15:48.098Z,100.00
2024-05-09T09:16:51.826Z,100.00
2024-05-09T09:17:54.209Z,100.00
2024-05-09T09:18:57.746Z,100.00
2024-05-09T09:19:59.880Z,100.00
2024-05-09T09:21:02.447Z,100.00
2024-05-09T09:22:04.266Z,100.00
2024-05-09T09:23:05.834Z,100.00
2024-05-09T09:24:09.890Z,100.00
2024-05-09T09:25:11.746Z,100.00
2024-05-09T09:26:16.791Z,100.00
2024-05-09T09:27:19.124Z,100.00
2024-05-09T09:28:23.256Z,100.00
2024-05-09T09:29:25.267Z,100.00
2024-05-09T09:30:36.496Z,100.00
2024-05-09T09:31:39.688Z,100.00
2024-05-09T09:32:41.464Z,100.00
2024-05-09T09:33:43.246Z,100.00
2024-05-09T09:34:45.061Z,100.00
2024-05-09T09:35:46.700Z,100.00
2024-05-09T09:36:49.110Z,100.00
2024-05-09T09:37:51.418Z,100.00
2024-05-09T09:38:53.080Z,100.00
2024-05-09T09:39:55.023Z,100.00
2024-05-09T09:40:56.754Z,100.00
2024-05-09T09:42:01.876Z,100.00
2024-05-09T09:43:07.188Z,100.00
2024-05-09T09:44:09.138Z,100.00
2024-05-09T09:45:10.912Z,100.00
2024-05-09T09:46:13.623Z,100.00
2024-05-09T09:47:15.871Z,100.00
2024-05-09T09:48:18.209Z,100.00
2024-05-09T09:49:20.012Z,100.00
2024-05-09T09:50:27.894Z,100.00
2024-05-09T09:51:36.037Z,100.00
2024-05-09T09:52:38.043Z,100.00
2024-05-09T09:53:40.034Z,100.00
2024-05-09T09:54:42.030Z,100.00
2024-05-09T09:55:43.719Z,100.00
2024-05-09T09:56:47.652Z,100.00
2024-05-09T09:57:49.478Z,100.00
2024-05-09T09:58:51.190Z,100.00
2024-05-09T09:59:54.599Z,100.00
2024-05-09T10:00:56.306Z,100.00
2024-05-09T10:01:58.190Z,100.00
2024-05-09T10:03:00.079Z,100.00
2024-05-09T10:04:02.384Z,100.00
2024-05-09T10:05:04.323Z,100.00
2024-05-09T10:06:07.016Z,100.00
2024-05-09T10:07:09.778Z,100.00
2024-05-09T10:08:12.264Z,100.00
2024-05-09T10:09:18.205Z,100.00
2024-05-09T10:10:30.203Z,100.00
2024-05-09T10:11:41.829Z,100.00
2024-05-09T10:13:13.398Z,100.00
2024-05-09T10:14:20.131Z,100.00
2024-05-09T10:15:21.767Z,100.00
2024-05-09T10:16:23.368Z,100.00
2024-05-09T10:17:25.180Z,100.00
2024-05-09T10:18:35.824Z,100.00
2024-05-09T10:19:37.553Z,100.00
2024-05-09T10:20:39.819Z,100.00
2024-05-09T10:21:46.269Z,100.00
2024-05-09T10:22:51.512Z,100.00
2024-05-09T10:24:00.573Z,100.00
2024-05-09T10:25:07.975Z,100.00
2024-05-09T10:26:09.583Z,100.00
2024-05-09T10:27:11.170Z,100.00
2024-05-09T10:28:12.878Z,100.00
2024-05-09T10:29:15.157Z,100.00
2024-05-09T10:30:29.422Z,100.00
2024-05-09T10:31:38.343Z,100.00
2024-05-09T10:32:40.698Z,100.00
2024-05-09T10:33:46.311Z,100.00
2024-05-09T10:35:00.839Z,100.00
2024-05-09T10:36:18.623Z,100.00
2024-05-09T10:37:20.394Z,100.00
2024-05-09T10:38:22.141Z,100.00
2024-05-09T10:39:25.276Z,100.00
2024-05-09T10:40:31.235Z,100.00
2024-05-09T10:41:33.672Z,100.00
2024-05-09T10:42:41.713Z,100.00
2024-05-09T10:43:43.320Z,100.00
2024-05-09T10:44:44.840Z,100.00
2024-05-09T10:45:46.384Z,100.00
2024-05-09T10:46:48.186Z,100.00
2024-05-09T10:47:49.916Z,100.00
2024-05-09T10:48:52.478Z,100.00
2024-05-09T10:49:54.261Z,100.00
2024-05-09T10:50:55.888Z,100.00
2024-05-09T10:51:57.461Z,100.00
2024-05-09T10:52:59.004Z,100.00
2024-05-09T10:54:00.604Z,100.00
2024-05-09T10:55:05.420Z,100.00
2024-05-09T10:56:07.575Z,100.00
2024-05-09T10:57:09.152Z,100.00
2024-05-09T10:58:19.961Z,100.00
2024-05-09T10:59:21.621Z,100.00
2024-05-09T11:00:30.202Z,100.00
2024-05-09T11:01:35.643Z,100.00
2024-05-09T11:02:37.417Z,100.00
2024-05-09T11:03:39.933Z,100.00
2024-05-09T11:04:41.937Z,100.00
2024-05-09T11:05:44.238Z,100.00
2024-05-09T11:06:46.681Z,100.00
2024-05-09T11:07:48.403Z,100.00
2024-05-09T11:08:50.650Z,100.00
2024-05-09T11:09:53.065Z,100.00
2024-05-09T11:10:56.040Z,100.00
2024-05-09T11:11:57.930Z,100.00
2024-05-09T11:12:59.534Z,100.00
2024-05-09T11:14:11.142Z,100.00
2024-05-09T11:15:12.731Z,99.80
2024-05-09T11:16:21.886Z,100.00
2024-05-09T11:17:23.684Z,100.00
2024-05-09T11:18:28.717Z,100.00
2024-05-09T11:19:32.799Z,100.00
2024-05-09T11:20:35.582Z,100.00
2024-05-09T11:21:37.390Z,100.00
2024-05-09T11:22:38.962Z,100.00
2024-05-09T11:23:40.741Z,100.00
2024-05-09T11:24:42.355Z,100.00
2024-05-09T11:25:54.525Z,99.20
2024-05-09T11:26:59.538Z,99.50
2024-05-09T11:28:01.185Z,99.84
2024-05-09T11:29:02.835Z,98.83
2024-05-09T11:30:05.752Z,99.14
2024-05-09T11:31:10.115Z,97.79
2024-05-09T11:32:13.659Z,98.79
2024-05-09T11:33:16.357Z,98.64
2024-05-09T11:34:18.164Z,98.06
2024-05-09T11:35:20.323Z,95.74
2024-05-09T11:36:21.921Z,95.24
2024-05-09T11:37:23.513Z,95.71
2024-05-09T11:38:25.070Z,94.14
2024-05-09T11:39:26.892Z,94.59
2024-05-09T11:40:34.041Z,95.00
2024-05-09T11:41:36.251Z,94.86
2024-05-09T11:42:37.837Z,94.87
2024-05-09T11:43:39.425Z,95.08
2024-05-09T11:44:41.141Z,95.25
2024-05-09T11:45:42.772Z,94.37
2024-05-09T11:46:44.487Z,94.81
2024-05-09T11:47:46.387Z,95.66
2024-05-09T11:48:48.282Z,96.08
2024-05-09T11:49:50.028Z,96.40
2024-05-09T11:50:51.637Z,95.24
2024-05-09T11:51:53.409Z,95.74
2024-05-09T11:52:55.013Z,95.80
2024-05-09T11:53:56.552Z,95.00
2024-05-09T11:54:58.467Z,95.58
2024-05-09T11:56:00.099Z,96.71
2024-05-09T11:57:01.735Z,97.06
2024-05-09T11:58:03.493Z,96.60
2024-05-09T11:59:05.026Z,95.53
2024-05-09T12:00:09.401Z,94.92
2024-05-09T12:01:11.252Z,94.82
2024-05-09T12:02:13.126Z,95.93
2024-05-09T12:03:15.034Z,94.66
2024-05-09T12:04:16.911Z,94.30
2024-05-09T12:05:18.896Z,95.85
2024-05-09T12:06:21.135Z,95.97
2024-05-09T12:07:22.807Z,96.50
2024-05-09T12:08:24.414Z,95.68
2024-05-09T12:09:26.572Z,95.94
2024-05-09T12:10:33.366Z,94.57
2024-05-09T12:11:37.309Z,95.31
2024-05-09T12:12:38.951Z,95.81
2024-05-09T12:13:40.506Z,94.16
2024-05-09T12:14:42.512Z,92.92
2024-05-09T12:15:44.143Z,92.46
2024-05-09T12:16:45.799Z,92.61
2024-05-09T12:17:50.463Z,93.66
2024-05-09T12:18:52.352Z,93.26
2024-05-09T12:19:53.962Z,93.38
2024-05-09T12:20:55.507Z,94.19
2024-05-09T12:21:57.084Z,92.91
2024-05-09T12:22:58.893Z,93.51
2024-05-09T12:24:00.430Z,93.58
2024-05-09T12:25:04.903Z,93.02
2024-05-09T12:26:06.582Z,91.82
2024-05-09T12:27:08.143Z,93.44
2024-05-09T12:28:09.882Z,93.37
2024-05-09T12:29:11.484Z,91.62
2024-05-09T12:30:20.746Z,91.80
2024-05-09T12:31:30.048Z,93.17
2024-05-09T12:32:31.829Z,93.57
2024-05-09T12:33:33.483Z,92.85
2024-05-09T12:34:36.493Z,93.04
2024-05-09T12:35:38.171Z,93.71
2024-05-09T12:36:40.027Z,94.42
2024-05-09T12:37:41.690Z,93.94
2024-05-09T12:38:43.263Z,93.54
2024-05-09T12:39:45.207Z,94.15
2024-05-09T12:40:46.954Z,94.35
2024-05-09T12:41:48.630Z,94.58
2024-05-09T12:42:50.337Z,94.12
2024-05-09T12:43:52.115Z,93.40
2024-05-09T12:44:53.684Z,94.05
2024-05-09T12:45:55.410Z,94.39
2024-05-09T12:46:57.031Z,95.56
2024-05-09T12:47:58.690Z,96.19
2024-05-09T12:49:00.698Z,95.58
2024-05-09T12:50:06.456Z,95.24
2024-05-09T12:51:09.745Z,94.90
2024-05-09T12:52:11.508Z,95.70
2024-05-09T12:53:13.215Z,95.80
2024-05-09T12:54:14.792Z,94.67
2024-05-09T12:55:16.484Z,95.68
2024-05-09T12:56:18.302Z,96.37
2024-05-09T12:57:20.187Z,96.11
2024-05-09T12:58:22.629Z,96.09
2024-05-09T12:59:24.449Z,94.72
2024-05-09T13:00:31.692Z,94.80
2024-05-09T13:01:35.655Z,95.71
2024-05-09T13:02:37.352Z,95.64
2024-05-09T13:03:39.175Z,97.10
2024-05-09T13:04:41.184Z,96.80
2024-05-09T13:05:45.124Z,96.42
2024-05-09T13:06:47.222Z,96.28
2024-05-09T13:07:48.860Z,96.84
2024-05-09T13:08:50.431Z,97.39
2024-05-09T13:09:52.093Z,97.58
2024-05-09T13:10:53.864Z,97.93
2024-05-09T13:11:55.525Z,98.02
2024-05-09T13:12:57.087Z,97.15